Terminal Aerodrome Forecast
Issued by NWS Sioux Falls, SD

Home | Current Version | Previous Version | Graphics & Text | Print | Product List | Glossary On
Versions: 1 2 3 4 5 6 7 8 9 10 11 12 13 14 15 16 17 18 19 20 21 22 23 24 25 26 27 28 29 30 31 32 33 34 35 36 37 38 39 40
876
FTUS43 KFSD 250520
TAFSUX
TAF
KSUX 250520Z 2506/2606 03013KT 5SM BR VCSH OVC008
     FM251000 02014KT P6SM OVC008
     FM251700 02012KT P6SM OVC010
     FM260200 03007KT P6SM OVC010=

USA.gov is the U.S. government's official web portal to all federal, state and local government web resources and services.